sensor_id;sensor_type;location;lat;lon;timestamp;P1;durP1;ratioP1;P2;durP2;ratioP2
36185;SDS011;22228;53.222;7.446;2023-08-31T00:01:37;2.10;;;1.83;;
36185;SDS011;22228;53.222;7.446;2023-08-31T00:03:57;9.10;;;2.37;;
36185;SDS011;22228;53.222;7.446;2023-08-31T00:06:18;2.97;;;2.00;;
36185;SDS011;22228;53.222;7.446;2023-08-31T00:08:40;5.20;;;2.07;;
36185;SDS011;22228;53.222;7.446;2023-08-31T00:11:00;2.10;;;2.00;;
36185;SDS011;22228;53.222;7.446;2023-08-31T00:13:22;3.30;;;2.10;;
36185;SDS011;22228;53.222;7.446;2023-08-31T03:01:45;4.80;;;4.27;;
36185;SDS011;22228;53.222;7.446;2023-08-31T03:04:06;7.73;;;4.03;;
36185;SDS011;22228;53.222;7.446;2023-08-31T03:06:27;8.17;;;4.50;;
36185;SDS011;22228;53.222;7.446;2023-08-31T03:08:47;9.43;;;4.67;;
36185;SDS011;22228;53.222;7.446;2023-08-31T03:11:11;8.00;;;4.63;;
36185;SDS011;22228;53.222;7.446;2023-08-31T03:13:34;12.07;;;4.53;;
36185;SDS011;22228;53.222;7.446;2023-08-31T03:15:55;8.97;;;4.43;;
36185;SDS011;22228;53.222;7.446;2023-08-31T03:18:18;6.53;;;4.10;;
36185;SDS011;22228;53.222;7.446;2023-08-31T03:20:40;9.27;;;4.33;;
36185;SDS011;22228;53.222;7.446;2023-08-31T03:23:00;6.70;;;4.37;;
36185;SDS011;22228;53.222;7.446;2023-08-31T03:25:21;9.07;;;4.50;;
36185;SDS011;22228;53.222;7.446;2023-08-31T03:27:41;7.93;;;4.43;;
36185;SDS011;22228;53.222;7.446;2023-08-31T03:30:03;8.43;;;4.70;;
36185;SDS011;22228;53.222;7.446;2023-08-31T03:32:24;6.60;;;3.93;;
36185;SDS011;22228;53.222;7.446;2023-08-31T03:34:46;6.03;;;3.73;;
36185;SDS011;22228;53.222;7.446;2023-08-31T03:37:07;4.33;;;3.93;;
36185;SDS011;22228;53.222;7.446;2023-08-31T03:39:28;8.90;;;4.80;;
36185;SDS011;22228;53.222;7.446;2023-08-31T03:41:49;7.00;;;4.60;;
36185;SDS011;22228;53.222;7.446;2023-08-31T03:44:09;8.70;;;4.30;;
36185;SDS011;22228;53.222;7.446;2023-08-31T03:46:30;6.37;;;4.17;;
36185;SDS011;22228;53.222;7.446;2023-08-31T03:48:51;5.63;;;4.37;;
36185;SDS011;22228;53.222;7.446;2023-08-31T03:51:13;5.17;;;4.67;;
36185;SDS011;22228;53.222;7.446;2023-08-31T03:53:36;6.87;;;4.20;;
36185;SDS011;22228;53.222;7.446;2023-08-31T03:55:56;5.87;;;4.23;;
36185;SDS011;22228;53.222;7.446;2023-08-31T03:58:17;7.60;;;4.37;;
36185;SDS011;22228;53.222;7.446;2023-08-31T04:00:40;6.83;;;4.33;;
36185;SDS011;22228;53.222;7.446;2023-08-31T04:03:01;7.27;;;4.80;;
36185;SDS011;22228;53.222;7.446;2023-08-31T04:05:22;5.87;;;4.63;;
36185;SDS011;22228;53.222;7.446;2023-08-31T04:07:44;6.97;;;5.20;;
36185;SDS011;22228;53.222;7.446;2023-08-31T04:10:05;6.00;;;5.40;;
36185;SDS011;22228;53.222;7.446;2023-08-31T04:12:26;8.03;;;5.23;;
36185;SDS011;22228;53.222;7.446;2023-08-31T04:14:47;7.07;;;5.77;;
36185;SDS011;22228;53.222;7.446;2023-08-31T04:17:08;8.10;;;6.90;;
36185;SDS011;22228;53.222;7.446;2023-08-31T04:19:28;12.80;;;6.37;;
36185;SDS011;22228;53.222;7.446;2023-08-31T04:21:49;9.73;;;7.27;;
36185;SDS011;22228;53.222;7.446;2023-08-31T04:24:11;8.50;;;7.57;;
36185;SDS011;22228;53.222;7.446;2023-08-31T04:26:32;10.43;;;8.03;;
36185;SDS011;22228;53.222;7.446;2023-08-31T04:28:52;9.67;;;8.07;;
36185;SDS011;22228;53.222;7.446;2023-08-31T04:31:13;11.60;;;8.00;;
36185;SDS011;22228;53.222;7.446;2023-08-31T04:33:33;9.57;;;8.27;;
36185;SDS011;22228;53.222;7.446;2023-08-31T04:35:54;9.17;;;8.20;;
36185;SDS011;22228;53.222;7.446;2023-08-31T04:38:15;8.60;;;7.80;;
36185;SDS011;22228;53.222;7.446;2023-08-31T04:40:37;8.73;;;7.83;;
36185;SDS011;22228;53.222;7.446;2023-08-31T04:42:57;9.37;;;8.33;;
36185;SDS011;22228;53.222;7.446;2023-08-31T04:45:18;8.43;;;7.07;;
36185;SDS011;22228;53.222;7.446;2023-08-31T04:47:39;10.23;;;7.00;;
36185;SDS011;22228;53.222;7.446;2023-08-31T04:49:59;8.23;;;7.23;;
36185;SDS011;22228;53.222;7.446;2023-08-31T04:52:20;9.57;;;8.57;;
36185;SDS011;22228;53.222;7.446;2023-08-31T04:54:40;10.23;;;8.50;;
36185;SDS011;22228;53.222;7.446;2023-08-31T04:57:02;9.47;;;8.40;;
36185;SDS011;22228;53.222;7.446;2023-08-31T04:59:26;10.50;;;8.43;;
36185;SDS011;22228;53.222;7.446;2023-08-31T05:01:46;12.07;;;8.83;;
36185;SDS011;22228;53.222;7.446;2023-08-31T05:04:07;9.60;;;8.47;;
36185;SDS011;22228;53.222;7.446;2023-08-31T05:06:27;13.40;;;9.40;;
36185;SDS011;22228;53.222;7.446;2023-08-31T05:08:48;13.20;;;9.97;;
36185;SDS011;22228;53.222;7.446;2023-08-31T05:11:09;13.83;;;9.57;;
36185;SDS011;22228;53.222;7.446;2023-08-31T05:13:31;13.57;;;10.93;;
36185;SDS011;22228;53.222;7.446;2023-08-31T05:15:51;16.20;;;11.13;;
36185;SDS011;22228;53.222;7.446;2023-08-31T05:18:12;14.50;;;11.53;;
36185;SDS011;22228;53.222;7.446;2023-08-31T05:20:32;13.93;;;11.97;;
36185;SDS011;22228;53.222;7.446;2023-08-31T05:22:53;16.57;;;11.77;;
36185;SDS011;22228;53.222;7.446;2023-08-31T05:25:14;13.00;;;10.93;;
36185;SDS011;22228;53.222;7.446;2023-08-31T05:27:34;13.77;;;11.40;;
36185;SDS011;22228;53.222;7.446;2023-08-31T05:29:56;14.87;;;12.17;;
36185;SDS011;22228;53.222;7.446;2023-08-31T05:32:16;14.57;;;13.07;;
36185;SDS011;22228;53.222;7.446;2023-08-31T05:34:37;14.33;;;12.83;;
36185;SDS011;22228;53.222;7.446;2023-08-31T05:36:58;13.57;;;12.33;;
36185;SDS011;22228;53.222;7.446;2023-08-31T05:39:18;17.13;;;12.37;;
36185;SDS011;22228;53.222;7.446;2023-08-31T05:41:40;13.97;;;12.57;;
36185;SDS011;22228;53.222;7.446;2023-08-31T05:44:00;16.00;;;13.53;;
36185;SDS011;22228;53.222;7.446;2023-08-31T05:46:22;17.30;;;14.20;;
36185;SDS011;22228;53.222;7.446;2023-08-31T05:48:43;16.93;;;14.27;;
36185;SDS011;22228;53.222;7.446;2023-08-31T05:51:03;15.70;;;14.17;;
36185;SDS011;22228;53.222;7.446;2023-08-31T05:53:24;15.30;;;13.80;;
36185;SDS011;22228;53.222;7.446;2023-08-31T05:55:44;16.97;;;15.10;;
36185;SDS011;22228;53.222;7.446;2023-08-31T05:58:05;17.17;;;15.20;;
36185;SDS011;22228;53.222;7.446;2023-08-31T06:00:26;16.00;;;14.30;;
36185;SDS011;22228;53.222;7.446;2023-08-31T06:02:48;15.63;;;14.03;;
36185;SDS011;22228;53.222;7.446;2023-08-31T06:05:09;15.60;;;13.97;;
36185;SDS011;22228;53.222;7.446;2023-08-31T06:07:30;15.87;;;14.17;;
36185;SDS011;22228;53.222;7.446;2023-08-31T06:09:51;14.93;;;13.27;;
36185;SDS011;22228;53.222;7.446;2023-08-31T06:12:11;15.30;;;12.90;;
36185;SDS011;22228;53.222;7.446;2023-08-31T06:14:32;14.47;;;13.00;;
36185;SDS011;22228;53.222;7.446;2023-08-31T06:16:52;14.20;;;12.53;;
36185;SDS011;22228;53.222;7.446;2023-08-31T06:19:14;13.73;;;12.50;;
36185;SDS011;22228;53.222;7.446;2023-08-31T06:21:35;13.47;;;12.07;;
36185;SDS011;22228;53.222;7.446;2023-08-31T06:23:55;12.30;;;11.10;;
36185;SDS011;22228;53.222;7.446;2023-08-31T06:26:16;12.63;;;11.53;;
36185;SDS011;22228;53.222;7.446;2023-08-31T06:28:36;12.10;;;11.00;;
36185;SDS011;22228;53.222;7.446;2023-08-31T06:30:57;11.90;;;10.80;;
36185;SDS011;22228;53.222;7.446;2023-08-31T06:33:18;12.40;;;11.20;;
36185;SDS011;22228;53.222;7.446;2023-08-31T06:35:39;11.17;;;10.27;;
36185;SDS011;22228;53.222;7.446;2023-08-31T06:38:00;11.77;;;10.53;;
36185;SDS011;22228;53.222;7.446;2023-08-31T06:40:21;12.57;;;11.30;;
36185;SDS011;22228;53.222;7.446;2023-08-31T06:42:41;11.23;;;10.00;;
36185;SDS011;22228;53.222;7.446;2023-08-31T06:45:02;10.03;;;9.13;;
36185;SDS011;22228;53.222;7.446;2023-08-31T06:47:22;10.53;;;9.70;;
36185;SDS011;22228;53.222;7.446;2023-08-31T06:49:43;9.07;;;8.27;;
36185;SDS011;22228;53.222;7.446;2023-08-31T06:52:05;10.47;;;9.50;;
36185;SDS011;22228;53.222;7.446;2023-08-31T06:54:26;8.70;;;7.90;;
36185;SDS011;22228;53.222;7.446;2023-08-31T06:56:47;8.93;;;8.13;;
36185;SDS011;22228;53.222;7.446;2023-08-31T06:59:07;9.10;;;8.30;;
36185;SDS011;22228;53.222;7.446;2023-08-31T07:01:28;10.63;;;7.93;;
36185;SDS011;22228;53.222;7.446;2023-08-31T07:03:51;8.83;;;8.03;;
36185;SDS011;22228;53.222;7.446;2023-08-31T07:06:12;8.03;;;7.37;;
36185;SDS011;22228;53.222;7.446;2023-08-31T07:08:34;8.07;;;6.93;;
36185;SDS011;22228;53.222;7.446;2023-08-31T07:10:55;8.13;;;7.33;;
36185;SDS011;22228;53.222;7.446;2023-08-31T07:13:16;9.17;;;8.27;;
36185;SDS011;22228;53.222;7.446;2023-08-31T07:15:36;8.07;;;6.53;;
36185;SDS011;22228;53.222;7.446;2023-08-31T07:17:57;7.57;;;6.90;;
36185;SDS011;22228;53.222;7.446;2023-08-31T07:20:17;7.47;;;6.77;;
36185;SDS011;22228;53.222;7.446;2023-08-31T07:22:38;7.97;;;7.27;;
36185;SDS011;22228;53.222;7.446;2023-08-31T07:25:01;7.27;;;6.63;;
36185;SDS011;22228;53.222;7.446;2023-08-31T07:27:22;8.57;;;6.07;;
36185;SDS011;22228;53.222;7.446;2023-08-31T07:29:42;9.23;;;6.53;;
36185;SDS011;22228;53.222;7.446;2023-08-31T07:32:03;6.83;;;6.27;;
36185;SDS011;22228;53.222;7.446;2023-08-31T07:34:24;7.40;;;5.63;;
36185;SDS011;22228;53.222;7.446;2023-08-31T07:36:45;7.37;;;6.30;;
36185;SDS011;22228;53.222;7.446;2023-08-31T07:39:05;5.90;;;5.40;;
36185;SDS011;22228;53.222;7.446;2023-08-31T07:41:27;7.23;;;5.50;;
36185;SDS011;22228;53.222;7.446;2023-08-31T07:43:48;5.57;;;5.10;;
36185;SDS011;22228;53.222;7.446;2023-08-31T07:46:08;6.17;;;5.63;;
36185;SDS011;22228;53.222;7.446;2023-08-31T07:48:29;5.57;;;5.10;;
36185;SDS011;22228;53.222;7.446;2023-08-31T07:50:49;5.33;;;4.77;;
36185;SDS011;22228;53.222;7.446;2023-08-31T07:53:10;4.93;;;4.53;;
36185;SDS011;22228;53.222;7.446;2023-08-31T07:55:31;5.17;;;4.63;;
36185;SDS011;22228;53.222;7.446;2023-08-31T07:57:53;4.20;;;3.80;;
36185;SDS011;22228;53.222;7.446;2023-08-31T08:00:13;4.47;;;4.10;;
36185;SDS011;22228;53.222;7.446;2023-08-31T08:02:34;4.37;;;3.53;;
36185;SDS011;22228;53.222;7.446;2023-08-31T08:04:55;4.40;;;3.90;;
36185;SDS011;22228;53.222;7.446;2023-08-31T08:07:15;3.90;;;3.47;;
36185;SDS011;22228;53.222;7.446;2023-08-31T08:09:35;3.27;;;3.07;;
36185;SDS011;22228;53.222;7.446;2023-08-31T08:11:56;4.47;;;3.37;;
36185;SDS011;22228;53.222;7.446;2023-08-31T08:14:18;3.30;;;3.10;;
36185;SDS011;22228;53.222;7.446;2023-08-31T08:16:38;4.03;;;2.67;;
36185;SDS011;22228;53.222;7.446;2023-08-31T08:18:59;2.83;;;2.63;;
36185;SDS011;22228;53.222;7.446;2023-08-31T08:21:19;3.67;;;2.33;;
36185;SDS011;22228;53.222;7.446;2023-08-31T08:23:39;3.17;;;2.23;;
36185;SDS011;22228;53.222;7.446;2023-08-31T08:26:00;2.83;;;2.20;;
36185;SDS011;22228;53.222;7.446;2023-08-31T08:28:20;4.53;;;2.47;;
36185;SDS011;22228;53.222;7.446;2023-08-31T08:30:42;4.20;;;2.23;;
36185;SDS011;22228;53.222;7.446;2023-08-31T08:33:03;4.47;;;1.73;;
36185;SDS011;22228;53.222;7.446;2023-08-31T08:35:24;3.93;;;1.83;;
36185;SDS011;22228;53.222;7.446;2023-08-31T08:37:45;2.77;;;1.50;;
36185;SDS011;22228;53.222;7.446;2023-08-31T08:40:06;3.97;;;1.40;;
36185;SDS011;22228;53.222;7.446;2023-08-31T08:42:28;3.80;;;1.53;;
36185;SDS011;22228;53.222;7.446;2023-08-31T08:44:50;4.07;;;1.23;;
36185;SDS011;22228;53.222;7.446;2023-08-31T08:47:12;1.73;;;0.90;;
36185;SDS011;22228;53.222;7.446;2023-08-31T08:49:33;3.27;;;1.10;;
36185;SDS011;22228;53.222;7.446;2023-08-31T08:51:55;1.83;;;0.90;;
36185;SDS011;22228;53.222;7.446;2023-08-31T08:54:15;2.43;;;0.80;;
36185;SDS011;22228;53.222;7.446;2023-08-31T08:56:37;1.57;;;0.77;;
36185;SDS011;22228;53.222;7.446;2023-08-31T08:58:57;3.67;;;1.03;;
36185;SDS011;22228;53.222;7.446;2023-08-31T09:01:18;1.50;;;0.60;;
36185;SDS011;22228;53.222;7.446;2023-08-31T09:03:43;3.10;;;0.40;;
36185;SDS011;22228;53.222;7.446;2023-08-31T09:06:03;3.70;;;0.70;;
36185;SDS011;22228;53.222;7.446;2023-08-31T09:08:27;2.27;;;0.60;;
36185;SDS011;22228;53.222;7.446;2023-08-31T09:10:48;2.50;;;0.50;;
36185;SDS011;22228;53.222;7.446;2023-08-31T09:13:08;3.83;;;0.60;;
36185;SDS011;22228;53.222;7.446;2023-08-31T09:15:35;3.60;;;0.40;;
36185;SDS011;22228;53.222;7.446;2023-08-31T09:17:56;2.00;;;0.40;;
36185;SDS011;22228;53.222;7.446;2023-08-31T09:20:18;1.43;;;0.30;;
36185;SDS011;22228;53.222;7.446;2023-08-31T09:22:40;1.23;;;0.50;;
36185;SDS011;22228;53.222;7.446;2023-08-31T09:25:03;2.73;;;0.50;;
36185;SDS011;22228;53.222;7.446;2023-08-31T09:27:24;3.77;;;0.40;;
36185;SDS011;22228;53.222;7.446;2023-08-31T09:29:45;1.77;;;0.50;;
36185;SDS011;22228;53.222;7.446;2023-08-31T09:32:06;1.77;;;0.30;;
36185;SDS011;22228;53.222;7.446;2023-08-31T09:34:32;1.87;;;0.40;;
36185;SDS011;22228;53.222;7.446;2023-08-31T09:36:54;1.93;;;0.50;;
36185;SDS011;22228;53.222;7.446;2023-08-31T09:39:15;1.83;;;0.30;;
36185;SDS011;22228;53.222;7.446;2023-08-31T09:41:35;0.77;;;0.30;;
36185;SDS011;22228;53.222;7.446;2023-08-31T09:44:15;1.13;;;0.30;;
36185;SDS011;22228;53.222;7.446;2023-08-31T09:46:37;1.20;;;0.20;;
36185;SDS011;22228;53.222;7.446;2023-08-31T09:48:58;0.50;;;0.30;;
36185;SDS011;22228;53.222;7.446;2023-08-31T09:51:19;0.40;;;0.30;;
36185;SDS011;22228;53.222;7.446;2023-08-31T09:53:43;1.73;;;0.30;;
36185;SDS011;22228;53.222;7.446;2023-08-31T09:56:08;0.43;;;0.30;;
36185;SDS011;22228;53.222;7.446;2023-08-31T09:58:34;2.20;;;0.50;;
36185;SDS011;22228;53.222;7.446;2023-08-31T10:00:54;0.60;;;0.30;;
36185;SDS011;22228;53.222;7.446;2023-08-31T10:03:15;0.63;;;0.40;;
36185;SDS011;22228;53.222;7.446;2023-08-31T10:05:36;0.77;;;0.50;;
36185;SDS011;22228;53.222;7.446;2023-08-31T10:07:57;2.63;;;0.50;;
36185;SDS011;22228;53.222;7.446;2023-08-31T10:10:19;1.23;;;0.40;;
36185;SDS011;22228;53.222;7.446;2023-08-31T10:12:41;1.13;;;0.37;;
36185;SDS011;22228;53.222;7.446;2023-08-31T10:15:04;1.87;;;0.40;;
36185;SDS011;22228;53.222;7.446;2023-08-31T10:17:25;0.80;;;0.50;;
36185;SDS011;22228;53.222;7.446;2023-08-31T10:19:47;2.80;;;0.50;;
36185;SDS011;22228;53.222;7.446;2023-08-31T10:22:07;1.80;;;0.50;;
36185;SDS011;22228;53.222;7.446;2023-08-31T10:27:20;1.83;;;0.70;;
36185;SDS011;22228;53.222;7.446;2023-08-31T10:29:41;1.53;;;0.67;;
36185;SDS011;22228;53.222;7.446;2023-08-31T10:32:01;2.30;;;0.53;;
36185;SDS011;22228;53.222;7.446;2023-08-31T10:34:33;1.63;;;0.53;;
36185;SDS011;22228;53.222;7.446;2023-08-31T10:36:56;1.33;;;0.40;;
36185;SDS011;22228;53.222;7.446;2023-08-31T10:39:17;0.97;;;0.40;;
36185;SDS011;22228;53.222;7.446;2023-08-31T10:41:38;4.23;;;0.60;;
36185;SDS011;22228;53.222;7.446;2023-08-31T10:44:00;1.87;;;0.80;;
36185;SDS011;22228;53.222;7.446;2023-08-31T10:46:24;2.23;;;0.77;;
36185;SDS011;22228;53.222;7.446;2023-08-31T10:48:50;2.83;;;0.77;;
36185;SDS011;22228;53.222;7.446;2023-08-31T10:51:15;1.90;;;0.50;;
36185;SDS011;22228;53.222;7.446;2023-08-31T10:53:37;4.40;;;0.60;;
36185;SDS011;22228;53.222;7.446;2023-08-31T10:55:57;2.03;;;0.40;;
36185;SDS011;22228;53.222;7.446;2023-08-31T10:58:18;0.83;;;0.37;;
36185;SDS011;22228;53.222;7.446;2023-08-31T11:00:52;0.60;;;0.40;;
36185;SDS011;22228;53.222;7.446;2023-08-31T11:03:16;1.27;;;0.40;;
36185;SDS011;22228;53.222;7.446;2023-08-31T11:05:36;4.27;;;0.43;;
36185;SDS011;22228;53.222;7.446;2023-08-31T11:08:10;0.90;;;0.50;;
36185;SDS011;22228;53.222;7.446;2023-08-31T11:10:30;0.63;;;0.40;;
36185;SDS011;22228;53.222;7.446;2023-08-31T11:12:52;0.63;;;0.40;;
36185;SDS011;22228;53.222;7.446;2023-08-31T11:15:14;1.50;;;0.40;;
36185;SDS011;22228;53.222;7.446;2023-08-31T11:17:37;2.20;;;0.70;;
36185;SDS011;22228;53.222;7.446;2023-08-31T11:19:59;1.77;;;0.40;;
36185;SDS011;22228;53.222;7.446;2023-08-31T11:22:20;1.80;;;0.43;;
36185;SDS011;22228;53.222;7.446;2023-08-31T11:24:40;1.67;;;0.43;;
36185;SDS011;22228;53.222;7.446;2023-08-31T11:27:01;1.33;;;0.40;;
36185;SDS011;22228;53.222;7.446;2023-08-31T11:29:22;0.97;;;0.67;;
36185;SDS011;22228;53.222;7.446;2023-08-31T11:31:43;0.90;;;0.40;;
36185;SDS011;22228;53.222;7.446;2023-08-31T11:34:05;0.90;;;0.40;;
36185;SDS011;22228;53.222;7.446;2023-08-31T11:36:26;3.13;;;0.50;;
36185;SDS011;22228;53.222;7.446;2023-08-31T11:38:47;1.80;;;0.50;;
36185;SDS011;22228;53.222;7.446;2023-08-31T11:41:08;2.87;;;0.50;;
36185;SDS011;22228;53.222;7.446;2023-08-31T11:43:29;1.07;;;0.40;;
36185;SDS011;22228;53.222;7.446;2023-08-31T11:45:50;1.60;;;0.47;;
36185;SDS011;22228;53.222;7.446;2023-08-31T11:48:11;0.43;;;0.40;;
36185;SDS011;22228;53.222;7.446;2023-08-31T11:50:33;0.67;;;0.57;;
36185;SDS011;22228;53.222;7.446;2023-08-31T11:52:54;1.53;;;0.50;;
36185;SDS011;22228;53.222;7.446;2023-08-31T11:55:15;2.53;;;0.67;;
36185;SDS011;22228;53.222;7.446;2023-08-31T11:57:37;4.37;;;1.00;;
36185;SDS011;22228;53.222;7.446;2023-08-31T11:59:57;2.90;;;1.30;;
36185;SDS011;22228;53.222;7.446;2023-08-31T12:02:18;4.53;;;1.40;;
36185;SDS011;22228;53.222;7.446;2023-08-31T12:04:42;2.40;;;0.97;;
36185;SDS011;22228;53.222;7.446;2023-08-31T12:07:05;2.00;;;0.73;;
36185;SDS011;22228;53.222;7.446;2023-08-31T12:09:25;3.00;;;0.67;;
36185;SDS011;22228;53.222;7.446;2023-08-31T12:11:51;1.00;;;0.70;;
36185;SDS011;22228;53.222;7.446;2023-08-31T12:14:19;2.63;;;1.00;;
36185;SDS011;22228;53.222;7.446;2023-08-31T12:16:39;2.17;;;0.80;;
36185;SDS011;22228;53.222;7.446;2023-08-31T12:18:59;3.23;;;0.90;;
36185;SDS011;22228;53.222;7.446;2023-08-31T12:21:22;3.43;;;0.77;;
36185;SDS011;22228;53.222;7.446;2023-08-31T12:23:45;2.63;;;0.73;;
36185;SDS011;22228;53.222;7.446;2023-08-31T12:26:05;2.37;;;0.70;;
36185;SDS011;22228;53.222;7.446;2023-08-31T12:28:27;1.27;;;0.57;;
36185;SDS011;22228;53.222;7.446;2023-08-31T12:30:48;3.40;;;0.57;;
36185;SDS011;22228;53.222;7.446;2023-08-31T12:33:08;2.00;;;0.50;;
36185;SDS011;22228;53.222;7.446;2023-08-31T12:35:28;2.90;;;0.60;;
36185;SDS011;22228;53.222;7.446;2023-08-31T12:37:49;1.13;;;0.60;;
36185;SDS011;22228;53.222;7.446;2023-08-31T12:40:11;1.53;;;0.40;;
36185;SDS011;22228;53.222;7.446;2023-08-31T12:42:32;1.17;;;0.50;;
36185;SDS011;22228;53.222;7.446;2023-08-31T12:44:53;2.90;;;0.60;;
36185;SDS011;22228;53.222;7.446;2023-08-31T12:47:13;0.87;;;0.53;;
36185;SDS011;22228;53.222;7.446;2023-08-31T12:49:34;1.93;;;0.80;;
36185;SDS011;22228;53.222;7.446;2023-08-31T12:51:54;0.53;;;0.43;;
36185;SDS011;22228;53.222;7.446;2023-08-31T12:54:14;1.70;;;0.60;;
36185;SDS011;22228;53.222;7.446;2023-08-31T12:56:36;1.23;;;0.70;;
36185;SDS011;22228;53.222;7.446;2023-08-31T12:58:57;2.97;;;0.83;;
36185;SDS011;22228;53.222;7.446;2023-08-31T13:01:17;2.60;;;0.60;;
36185;SDS011;22228;53.222;7.446;2023-08-31T13:03:39;2.10;;;0.87;;
36185;SDS011;22228;53.222;7.446;2023-08-31T13:05:59;1.33;;;0.40;;
36185;SDS011;22228;53.222;7.446;2023-08-31T13:08:20;1.13;;;0.40;;
36185;SDS011;22228;53.222;7.446;2023-08-31T13:10:41;0.73;;;0.37;;
36185;SDS011;22228;53.222;7.446;2023-08-31T13:13:03;0.63;;;0.30;;
36185;SDS011;22228;53.222;7.446;2023-08-31T13:15:24;0.30;;;0.30;;
36185;SDS011;22228;53.222;7.446;2023-08-31T13:17:44;0.93;;;0.20;;
36185;SDS011;22228;53.222;7.446;2023-08-31T13:20:05;0.30;;;0.30;;
36185;SDS011;22228;53.222;7.446;2023-08-31T13:22:27;1.10;;;0.30;;
36185;SDS011;22228;53.222;7.446;2023-08-31T13:24:48;0.30;;;0.30;;
36185;SDS011;22228;53.222;7.446;2023-08-31T13:27:09;2.47;;;0.40;;
36185;SDS011;22228;53.222;7.446;2023-08-31T13:29:31;1.33;;;0.30;;
36185;SDS011;22228;53.222;7.446;2023-08-31T13:31:51;0.50;;;0.40;;
36185;SDS011;22228;53.222;7.446;2023-08-31T13:34:12;0.60;;;0.40;;
36185;SDS011;22228;53.222;7.446;2023-08-31T13:36:34;1.53;;;0.53;;
36185;SDS011;22228;53.222;7.446;2023-08-31T13:38:55;0.67;;;0.40;;
36185;SDS011;22228;53.222;7.446;2023-08-31T13:41:15;0.80;;;0.37;;
36185;SDS011;22228;53.222;7.446;2023-08-31T13:43:36;1.13;;;0.40;;
36185;SDS011;22228;53.222;7.446;2023-08-31T13:45:58;2.13;;;0.50;;
36185;SDS011;22228;53.222;7.446;2023-08-31T13:48:18;2.07;;;0.60;;
36185;SDS011;22228;53.222;7.446;2023-08-31T13:50:41;0.90;;;0.50;;
36185;SDS011;22228;53.222;7.446;2023-08-31T13:53:01;1.70;;;0.60;;
36185;SDS011;22228;53.222;7.446;2023-08-31T13:55:22;1.60;;;0.40;;
36185;SDS011;22228;53.222;7.446;2023-08-31T13:57:42;1.90;;;0.50;;
36185;SDS011;22228;53.222;7.446;2023-08-31T14:00:03;1.43;;;0.50;;
36185;SDS011;22228;53.222;7.446;2023-08-31T14:02:29;1.73;;;0.50;;
36185;SDS011;22228;53.222;7.446;2023-08-31T14:04:50;1.93;;;0.63;;
36185;SDS011;22228;53.222;7.446;2023-08-31T14:07:10;1.53;;;0.63;;
36185;SDS011;22228;53.222;7.446;2023-08-31T14:09:30;0.77;;;0.60;;
36185;SDS011;22228;53.222;7.446;2023-08-31T14:11:51;2.13;;;0.60;;
36185;SDS011;22228;53.222;7.446;2023-08-31T14:14:13;1.27;;;0.60;;
36185;SDS011;22228;53.222;7.446;2023-08-31T14:16:34;1.40;;;0.50;;
36185;SDS011;22228;53.222;7.446;2023-08-31T14:18:57;1.17;;;0.53;;
36185;SDS011;22228;53.222;7.446;2023-08-31T14:21:18;1.03;;;0.67;;
36185;SDS011;22228;53.222;7.446;2023-08-31T14:23:39;1.17;;;0.60;;
36185;SDS011;22228;53.222;7.446;2023-08-31T14:26:03;1.37;;;0.57;;
36185;SDS011;22228;53.222;7.446;2023-08-31T14:28:23;1.80;;;0.80;;
36185;SDS011;22228;53.222;7.446;2023-08-31T14:30:44;1.90;;;0.57;;
36185;SDS011;22228;53.222;7.446;2023-08-31T14:33:04;2.27;;;0.60;;
36185;SDS011;22228;53.222;7.446;2023-08-31T14:35:26;2.67;;;0.60;;
36185;SDS011;22228;53.222;7.446;2023-08-31T14:37:47;1.10;;;0.80;;
36185;SDS011;22228;53.222;7.446;2023-08-31T14:40:08;2.10;;;0.50;;
36185;SDS011;22228;53.222;7.446;2023-08-31T14:42:29;3.07;;;0.63;;
36185;SDS011;22228;53.222;7.446;2023-08-31T14:44:48;2.00;;;0.43;;
36185;SDS011;22228;53.222;7.446;2023-08-31T14:47:09;1.30;;;0.60;;
36185;SDS011;22228;53.222;7.446;2023-08-31T14:49:30;0.80;;;0.50;;
36185;SDS011;22228;53.222;7.446;2023-08-31T14:51:51;1.60;;;0.60;;
36185;SDS011;22228;53.222;7.446;2023-08-31T14:54:12;1.30;;;0.60;;
36185;SDS011;22228;53.222;7.446;2023-08-31T14:56:32;1.53;;;0.80;;
36185;SDS011;22228;53.222;7.446;2023-08-31T14:58:53;1.23;;;0.70;;
36185;SDS011;22228;53.222;7.446;2023-08-31T15:01:14;1.60;;;0.60;;
36185;SDS011;22228;53.222;7.446;2023-08-31T15:03:34;1.60;;;0.70;;
36185;SDS011;22228;53.222;7.446;2023-08-31T15:05:55;0.90;;;0.60;;
36185;SDS011;22228;53.222;7.446;2023-08-31T15:08:17;1.60;;;0.60;;
36185;SDS011;22228;53.222;7.446;2023-08-31T15:10:37;0.60;;;0.60;;
36185;SDS011;22228;53.222;7.446;2023-08-31T15:12:59;1.40;;;0.70;;
36185;SDS011;22228;53.222;7.446;2023-08-31T15:15:19;1.10;;;0.50;;
36185;SDS011;22228;53.222;7.446;2023-08-31T15:17:40;1.27;;;0.80;;
36185;SDS011;22228;53.222;7.446;2023-08-31T15:20:00;0.60;;;0.60;;
36185;SDS011;22228;53.222;7.446;2023-08-31T15:22:22;2.03;;;0.80;;
36185;SDS011;22228;53.222;7.446;2023-08-31T15:24:44;0.87;;;0.60;;
36185;SDS011;22228;53.222;7.446;2023-08-31T15:27:05;4.47;;;0.57;;
36185;SDS011;22228;53.222;7.446;2023-08-31T15:29:26;1.97;;;0.57;;
36185;SDS011;22228;53.222;7.446;2023-08-31T15:31:46;1.37;;;0.40;;
36185;SDS011;22228;53.222;7.446;2023-08-31T15:34:09;1.43;;;0.60;;
36185;SDS011;22228;53.222;7.446;2023-08-31T15:36:29;2.43;;;0.93;;
36185;SDS011;22228;53.222;7.446;2023-08-31T15:38:50;1.07;;;0.70;;
36185;SDS011;22228;53.222;7.446;2023-08-31T15:41:12;0.83;;;0.53;;
36185;SDS011;22228;53.222;7.446;2023-08-31T15:43:34;1.20;;;0.67;;
36185;SDS011;22228;53.222;7.446;2023-08-31T15:45:57;2.17;;;0.50;;
36185;SDS011;22228;53.222;7.446;2023-08-31T15:48:17;1.77;;;0.70;;
36185;SDS011;22228;53.222;7.446;2023-08-31T15:50:38;1.03;;;0.53;;
36185;SDS011;22228;53.222;7.446;2023-08-31T15:52:59;2.70;;;0.70;;
36185;SDS011;22228;53.222;7.446;2023-08-31T15:55:19;1.83;;;0.50;;
36185;SDS011;22228;53.222;7.446;2023-08-31T15:57:41;3.30;;;0.87;;
36185;SDS011;22228;53.222;7.446;2023-08-31T16:00:02;1.80;;;0.60;;
36185;SDS011;22228;53.222;7.446;2023-08-31T16:02:24;2.60;;;0.67;;
36185;SDS011;22228;53.222;7.446;2023-08-31T16:04:45;2.13;;;0.60;;
36185;SDS011;22228;53.222;7.446;2023-08-31T16:07:06;2.13;;;0.97;;
36185;SDS011;22228;53.222;7.446;2023-08-31T16:09:27;0.67;;;0.50;;
36185;SDS011;22228;53.222;7.446;2023-08-31T16:11:47;3.07;;;0.80;;
36185;SDS011;22228;53.222;7.446;2023-08-31T16:14:09;1.93;;;0.70;;
36185;SDS011;22228;53.222;7.446;2023-08-31T16:16:30;1.20;;;0.60;;
36185;SDS011;22228;53.222;7.446;2023-08-31T16:18:50;2.33;;;0.63;;
36185;SDS011;22228;53.222;7.446;2023-08-31T16:21:11;2.73;;;0.60;;
36185;SDS011;22228;53.222;7.446;2023-08-31T16:23:31;2.67;;;0.80;;
36185;SDS011;22228;53.222;7.446;2023-08-31T16:25:52;0.87;;;0.70;;
36185;SDS011;22228;53.222;7.446;2023-08-31T16:28:12;0.80;;;0.60;;
36185;SDS011;22228;53.222;7.446;2023-08-31T16:30:34;1.60;;;0.80;;
36185;SDS011;22228;53.222;7.446;2023-08-31T16:32:55;2.50;;;0.80;;
36185;SDS011;22228;53.222;7.446;2023-08-31T16:35:15;6.60;;;0.80;;
36185;SDS011;22228;53.222;7.446;2023-08-31T16:37:36;2.30;;;0.70;;
36185;SDS011;22228;53.222;7.446;2023-08-31T16:39:56;5.70;;;0.87;;
36185;SDS011;22228;53.222;7.446;2023-08-31T16:42:17;2.40;;;0.90;;
36185;SDS011;22228;53.222;7.446;2023-08-31T16:44:37;5.07;;;1.00;;
36185;SDS011;22228;53.222;7.446;2023-08-31T16:46:59;3.07;;;1.00;;
36185;SDS011;22228;53.222;7.446;2023-08-31T16:49:20;2.30;;;0.60;;
36185;SDS011;22228;53.222;7.446;2023-08-31T16:51:40;2.40;;;0.70;;
36185;SDS011;22228;53.222;7.446;2023-08-31T16:54:00;2.30;;;0.90;;
36185;SDS011;22228;53.222;7.446;2023-08-31T16:56:21;4.57;;;1.10;;